createdAt,value
2022-11-22T00:00:11.785Z,16.84
2022-11-22T00:02:40.201Z,16.81
2022-11-22T00:05:12.670Z,16.77
2022-11-22T00:07:41.580Z,16.72
2022-11-22T00:10:12.688Z,16.65
2022-11-22T00:12:44.841Z,16.62
2022-11-22T00:15:16.393Z,16.58
2022-11-22T00:17:45.025Z,16.52
2022-11-22T00:20:14.181Z,16.46
2022-11-22T00:22:45.410Z,16.43
2022-11-22T00:25:18.963Z,16.38
2022-11-22T00:27:47.351Z,16.31
2022-11-22T00:30:20.869Z,16.26
2022-11-22T00:32:52.535Z,16.19
2022-11-22T00:35:20.903Z,16.11
2022-11-22T00:37:51.786Z,16.05
2022-11-22T00:40:20.258Z,15.99
2022-11-22T00:42:50.931Z,15.91
2022-11-22T00:45:24.142Z,15.79
2022-11-22T00:47:57.551Z,15.61
2022-11-22T00:50:35.092Z,15.49
2022-11-22T00:53:05.726Z,15.44
2022-11-22T00:55:34.071Z,15.36
2022-11-22T00:58:04.605Z,15.26
2022-11-22T01:00:33.163Z,15.15
2022-11-22T01:03:01.580Z,15.03
2022-11-22T01:05:29.905Z,14.92
2022-11-22T01:07:58.339Z,14.82
2022-11-22T01:10:26.696Z,14.70
2022-11-22T01:12:55.018Z,14.60
2022-11-22T01:15:31.740Z,14.52
2022-11-22T01:18:02.987Z,14.40
2022-11-22T01:20:34.827Z,14.31
2022-11-22T01:23:03.129Z,14.20
2022-11-22T01:25:33.955Z,14.12
2022-11-22T01:28:02.291Z,14.06
2022-11-22T01:30:30.586Z,13.99
2022-11-22T01:33:01.586Z,13.92
2022-11-22T01:35:29.979Z,13.85
2022-11-22T01:38:06.981Z,13.78
2022-11-22T01:40:40.133Z,13.71
2022-11-22T01:43:23.543Z,13.63
2022-11-22T01:46:00.011Z,13.54
2022-11-22T01:48:42.290Z,13.50
2022-11-22T01:51:33.105Z,13.43
2022-11-22T01:54:06.600Z,13.33
2022-11-22T01:56:40.204Z,13.25
2022-11-22T01:59:15.907Z,13.17
2022-11-22T02:01:46.478Z,13.08
2022-11-22T02:04:21.422Z,13.01
2022-11-22T02:07:30.676Z,12.90
2022-11-22T02:10:01.981Z,12.87
2022-11-22T02:12:33.011Z,12.80
2022-11-22T02:15:04.430Z,12.73
2022-11-22T02:17:32.751Z,12.64
2022-11-22T02:20:01.055Z,12.57
2022-11-22T02:22:43.071Z,12.52
2022-11-22T02:25:43.760Z,12.43
2022-11-22T02:28:19.631Z,12.36
2022-11-22T02:30:48.061Z,12.30
2022-11-22T02:33:18.383Z,12.25
2022-11-22T02:35:46.830Z,12.18
2022-11-22T02:38:23.461Z,12.15
2022-11-22T02:40:54.970Z,12.07
2022-11-22T02:43:48.262Z,12.00
2022-11-22T02:46:22.287Z,11.95
2022-11-22T02:48:51.434Z,11.93
2022-11-22T02:51:20.901Z,11.87
2022-11-22T02:53:54.183Z,11.82
2022-11-22T02:56:24.180Z,11.77
2022-11-22T02:58:52.548Z,11.74
2022-11-22T03:01:30.148Z,11.68
2022-11-22T03:03:58.539Z,11.60
2022-11-22T03:06:26.828Z,11.53
2022-11-22T03:09:00.748Z,11.48
2022-11-22T03:11:36.746Z,11.43
2022-11-22T03:14:05.186Z,11.42
2022-11-22T03:16:33.539Z,11.43
2022-11-22T03:19:04.223Z,11.40
2022-11-22T03:21:32.591Z,11.33
2022-11-22T03:24:03.908Z,11.27
2022-11-22T03:26:35.211Z,11.25
2022-11-22T03:29:07.150Z,11.21
2022-11-22T03:31:38.191Z,11.13
2022-11-22T03:34:09.081Z,11.09
2022-11-22T03:36:44.947Z,11.04
2022-11-22T03:39:13.202Z,10.97
2022-11-22T03:41:51.106Z,10.91
2022-11-22T03:44:24.900Z,10.84
2022-11-22T03:46:57.556Z,10.79
2022-11-22T03:49:28.656Z,10.76
2022-11-22T03:51:59.014Z,10.72
2022-11-22T03:54:32.905Z,10.71
2022-11-22T03:57:06.511Z,10.65
2022-11-22T03:59:38.186Z,10.58
2022-11-22T04:02:08.773Z,10.48
2022-11-22T04:04:39.692Z,10.45
2022-11-22T04:07:08.021Z,10.42
2022-11-22T04:09:46.327Z,10.35
2022-11-22T04:12:14.609Z,10.32
2022-11-22T04:15:01.180Z,10.28
2022-11-22T04:17:48.770Z,10.23
2022-11-22T04:20:39.095Z,10.20
2022-11-22T04:23:15.931Z,10.18
2022-11-22T04:26:03.230Z,10.12
2022-11-22T04:29:07.485Z,10.03
2022-11-22T04:31:44.685Z,10.00
2022-11-22T04:34:13.004Z,9.97
2022-11-22T04:36:41.337Z,9.98
2022-11-22T04:39:11.938Z,9.98
2022-11-22T04:41:40.675Z,9.94
2022-11-22T04:44:32.915Z,9.91
2022-11-22T04:47:01.230Z,9.86
2022-11-22T04:49:35.283Z,9.83
2022-11-22T04:52:22.146Z,9.81
2022-11-22T04:54:57.821Z,9.77
2022-11-22T04:57:29.982Z,9.71
2022-11-22T05:00:01.089Z,9.63
2022-11-22T05:02:29.491Z,9.59
2022-11-22T05:05:00.212Z,9.54
2022-11-22T05:07:28.621Z,9.53
2022-11-22T05:09:56.922Z,9.52
2022-11-22T05:12:30.193Z,9.53
2022-11-22T05:15:00.808Z,9.48
2022-11-22T05:17:34.340Z,9.47
2022-11-22T05:20:11.608Z,9.41
2022-11-22T05:22:59.455Z,9.34
2022-11-22T05:25:47.838Z,9.25
2022-11-22T05:28:19.467Z,9.23
2022-11-22T05:30:50.610Z,9.23
2022-11-22T05:33:18.911Z,9.21
2022-11-22T05:35:49.411Z,9.22
2022-11-22T05:38:22.760Z,9.20
2022-11-22T05:40:54.052Z,9.16
2022-11-22T05:43:26.744Z,9.11
2022-11-22T05:45:58.122Z,9.08
2022-11-22T05:48:35.180Z,9.04
2022-11-22T05:51:18.164Z,9.00
2022-11-22T05:53:52.331Z,8.96
2022-11-22T05:56:44.159Z,8.90
2022-11-22T05:59:17.467Z,8.87
2022-11-22T06:04:37.987Z,8.83
2022-11-22T06:07:13.300Z,8.83
2022-11-22T06:09:44.123Z,8.80
2022-11-22T06:12:16.523Z,8.76
2022-11-22T06:14:49.818Z,8.71
2022-11-22T06:17:23.791Z,8.63
2022-11-22T06:20:05.884Z,8.60
2022-11-22T06:22:39.677Z,8.59
2022-11-22T06:25:35.215Z,8.56
2022-11-22T06:28:04.833Z,8.51
2022-11-22T06:30:33.071Z,8.52
2022-11-22T06:33:04.157Z,8.47
2022-11-22T06:35:36.128Z,8.40
2022-11-22T06:38:06.712Z,8.36
2022-11-22T06:40:35.107Z,8.33
2022-11-22T06:43:11.643Z,8.29
2022-11-22T06:45:42.962Z,8.22
2022-11-22T06:48:14.231Z,8.18
2022-11-22T06:50:47.016Z,8.15
2022-11-22T06:53:45.316Z,8.13
2022-11-22T06:56:16.587Z,8.16
2022-11-22T06:59:21.043Z,8.14
2022-11-22T07:01:45.576Z,8.09
2022-11-22T07:04:13.895Z,8.06
2022-11-22T07:06:45.112Z,8.01
2022-11-22T07:09:13.735Z,7.93
2022-11-22T07:12:01.968Z,7.87
2022-11-22T07:14:36.253Z,7.76
2022-11-22T07:17:07.372Z,7.74
2022-11-22T07:19:49.306Z,7.72
2022-11-22T07:22:53.249Z,7.69
2022-11-22T07:25:21.960Z,7.66
2022-11-22T07:27:55.912Z,7.66
2022-11-22T07:30:24.155Z,7.67
2022-11-22T07:33:06.658Z,7.62
2022-11-22T07:35:44.451Z,7.58
2022-11-22T07:38:12.740Z,7.52
2022-11-22T07:40:46.982Z,7.48
2022-11-22T07:43:39.277Z,7.38
2022-11-22T07:46:21.241Z,7.32
2022-11-22T07:49:21.950Z,7.30
2022-11-22T07:51:50.402Z,7.28
2022-11-22T07:54:21.747Z,7.27
2022-11-22T07:57:11.445Z,7.26
2022-11-22T08:00:03.068Z,7.28
2022-11-22T08:02:33.970Z,7.29
2022-11-22T08:05:14.982Z,7.27
2022-11-22T08:08:05.361Z,7.27
2022-11-22T08:10:40.585Z,7.29
2022-11-22T08:13:19.635Z,7.23
2022-11-22T08:16:37.609Z,7.18
2022-11-22T08:19:01.956Z,7.18
2022-11-22T08:21:35.704Z,7.19
2022-11-22T08:24:15.440Z,7.16
2022-11-22T08:26:48.931Z,7.14
2022-11-22T08:29:40.427Z,7.12
2022-11-22T08:32:27.641Z,7.09
2022-11-22T08:34:58.863Z,7.06
2022-11-22T08:37:43.326Z,7.03
2022-11-22T08:40:27.860Z,7.00
2022-11-22T08:43:04.084Z,6.97
2022-11-22T08:45:34.975Z,6.98
2022-11-22T08:48:05.514Z,6.98
2022-11-22T08:50:39.721Z,6.96
2022-11-22T08:53:12.332Z,6.94
2022-11-22T08:56:00.251Z,6.90
2022-11-22T08:58:45.119Z,6.85
2022-11-22T09:01:35.094Z,6.81
2022-11-22T09:04:10.496Z,6.79
2022-11-22T09:10:04.984Z,6.70
2022-11-22T09:12:48.766Z,6.68
2022-11-22T09:15:35.298Z,6.65
2022-11-22T09:18:07.840Z,6.59
2022-11-22T09:20:52.705Z,6.54
2022-11-22T09:23:34.316Z,6.51
2022-11-22T09:26:18.869Z,6.52
2022-11-22T09:29:06.384Z,6.51
2022-11-22T09:31:37.672Z,6.48
2022-11-22T09:34:21.432Z,6.44
2022-11-22T09:37:03.701Z,6.44
2022-11-22T09:39:48.682Z,6.40
2022-11-22T09:42:27.597Z,6.38
2022-11-22T09:45:09.533Z,6.37
2022-11-22T09:48:09.907Z,6.35
2022-11-22T09:51:06.022Z,6.29
2022-11-22T09:54:15.453Z,6.27
2022-11-22T09:56:51.010Z,6.21
2022-11-22T09:59:43.360Z,6.19
2022-11-22T10:02:59.482Z,6.12
2022-11-22T10:05:54.936Z,6.10
2022-11-22T10:09:36.557Z,6.06
2022-11-22T10:12:14.968Z,6.04
2022-11-22T10:15:29.736Z,6.03
2022-11-22T10:18:24.925Z,5.97
2022-11-22T10:20:58.706Z,5.95
2022-11-22T10:23:41.856Z,5.92
2022-11-22T10:26:42.558Z,5.89
2022-11-22T10:30:34.929Z,5.87
2022-11-22T10:32:45.148Z,5.84
2022-11-22T10:35:50.272Z,5.85
2022-11-22T10:39:27.872Z,5.80
2022-11-22T10:42:47.227Z,5.77
2022-11-22T10:45:18.532Z,5.72
2022-11-22T10:48:06.538Z,5.69
2022-11-22T10:51:12.106Z,5.67
2022-11-22T10:54:27.782Z,5.64
2022-11-22T10:57:12.735Z,5.66
2022-11-22T11:00:30.010Z,5.65
2022-11-22T11:03:43.141Z,5.62
2022-11-22T11:13:06.413Z,5.59
2022-11-22T11:16:19.588Z,5.50
2022-11-22T11:19:33.389Z,5.45
2022-11-22T11:22:51.577Z,5.43
2022-11-22T11:26:06.175Z,5.40
2022-11-22T11:28:43.841Z,5.37
2022-11-22T11:31:28.997Z,5.35
2022-11-22T11:34:29.063Z,5.34
2022-11-22T11:37:30.331Z,5.35
2022-11-22T11:40:39.960Z,5.35
2022-11-22T11:43:33.027Z,5.33
2022-11-22T11:46:36.144Z,5.31
2022-11-22T11:49:22.077Z,5.26
2022-11-22T11:52:22.258Z,5.25
2022-11-22T11:55:03.064Z,5.16
2022-11-22T11:57:46.666Z,5.11
2022-11-22T12:00:56.632Z,5.08
2022-11-22T12:03:43.706Z,5.04
2022-11-22T12:06:20.850Z,4.97
2022-11-22T12:09:01.334Z,4.94
2022-11-22T12:11:52.812Z,4.95
2022-11-22T12:15:03.791Z,5.01
2022-11-22T12:17:49.588Z,5.01
2022-11-22T12:20:38.788Z,4.98
2022-11-22T12:23:25.269Z,4.95
2022-11-22T12:26:17.540Z,4.93
2022-11-22T12:29:11.103Z,4.91
2022-11-22T12:32:24.012Z,4.91
2022-11-22T12:35:18.991Z,4.87
2022-11-22T12:38:18.838Z,4.88
2022-11-22T12:41:14.464Z,4.89
2022-11-22T12:44:21.404Z,4.92
2022-11-22T12:47:19.518Z,4.90
2022-11-22T12:50:34.223Z,4.92
2022-11-22T12:53:19.786Z,4.96
2022-11-22T12:56:34.885Z,4.95
2022-11-22T12:59:33.323Z,4.90
2022-11-22T13:02:41.071Z,4.86
2022-11-22T13:06:11.070Z,4.86
2022-11-22T13:09:04.138Z,4.85
2022-11-22T13:11:39.826Z,4.85
2022-11-22T13:18:47.691Z,4.76
2022-11-22T13:22:01.582Z,4.76
2022-11-22T13:28:09.901Z,4.66
2022-11-22T13:34:02.831Z,4.70
2022-11-22T13:37:06.536Z,4.65
2022-11-22T13:40:00.258Z,4.61
2022-11-22T13:42:53.182Z,4.60
2022-11-22T13:45:56.115Z,4.59
2022-11-22T13:48:54.987Z,4.58
2022-11-22T13:52:46.880Z,4.60
2022-11-22T13:55:51.581Z,4.56
2022-11-22T14:01:45.700Z,4.49
2022-11-22T14:04:17.991Z,4.50
2022-11-22T14:07:00.113Z,4.51
2022-11-22T14:09:52.114Z,4.49
2022-11-22T14:13:37.785Z,4.46
2022-11-22T14:16:17.553Z,4.39
2022-11-22T14:19:21.986Z,4.29
2022-11-22T14:22:46.571Z,4.25
2022-11-22T14:26:30.358Z,4.21
2022-11-22T14:29:13.821Z,4.21
2022-11-22T14:32:04.022Z,4.25
2022-11-22T14:35:04.033Z,4.30
2022-11-22T14:37:50.506Z,4.35
2022-11-22T14:44:05.971Z,4.42
2022-11-22T14:51:07.166Z,4.35
2022-11-22T14:54:47.005Z,4.33
2022-11-22T14:57:45.486Z,4.28
2022-11-22T15:01:00.047Z,4.26
2022-11-22T15:09:13.692Z,4.29
2022-11-22T15:09:15.569Z,4.36
2022-11-22T15:11:05.046Z,4.36
2022-11-22T15:14:12.667Z,4.33
2022-11-22T15:59:51.217Z,5.02
2022-11-22T16:02:49.119Z,5.10
2022-11-22T16:09:21.117Z,5.26
2022-11-22T16:11:55.096Z,5.35
2022-11-22T16:15:59.832Z,5.44
2022-11-22T16:18:48.355Z,5.54
2022-11-22T16:21:55.906Z,5.67
2022-11-22T16:24:31.080Z,5.77
2022-11-22T16:27:44.423Z,5.87
2022-11-22T16:30:49.758Z,6.04
2022-11-22T16:34:02.007Z,6.18
2022-11-22T16:37:33.128Z,6.32
2022-11-22T16:40:40.007Z,6.49
2022-11-22T16:43:24.462Z,6.58
2022-11-22T16:46:38.032Z,6.70
2022-11-22T16:49:44.393Z,6.85
2022-11-22T16:55:12.229Z,7.11
2022-11-22T16:58:03.310Z,7.23
2022-11-22T17:00:44.009Z,7.38
2022-11-22T17:03:24.871Z,7.52
2022-11-22T17:06:26.029Z,7.67
2022-11-22T17:09:24.258Z,7.81
2022-11-22T17:12:01.313Z,7.94
2022-11-22T17:14:58.182Z,8.09
2022-11-22T17:17:46.767Z,8.24
2022-11-22T17:20:34.402Z,8.39
2022-11-22T17:26:06.579Z,8.58
2022-11-22T17:28:42.981Z,8.67
2022-11-22T17:31:44.075Z,8.78
2022-11-22T17:34:18.931Z,8.91
2022-11-22T17:37:03.747Z,9.01
2022-11-22T17:39:39.982Z,9.13
2022-11-22T17:42:15.781Z,9.22
2022-11-22T17:44:50.022Z,9.32
2022-11-22T17:47:29.420Z,9.49
2022-11-22T17:50:03.899Z,9.69
2022-11-22T17:52:39.479Z,9.83
2022-11-22T17:55:14.400Z,9.94
2022-11-22T17:57:55.708Z,10.04
2022-11-22T18:00:43.698Z,10.10
2022-11-22T18:03:20.306Z,10.13
2022-11-22T18:05:49.366Z,10.24
2022-11-22T18:08:22.707Z,10.31
2022-11-22T18:11:01.041Z,10.39
2022-11-22T18:16:24.361Z,10.66
2022-11-22T18:19:14.818Z,10.79
2022-11-22T18:22:12.115Z,10.93
2022-11-22T18:24:53.789Z,11.00
2022-11-22T18:27:28.102Z,11.11
2022-11-22T18:30:04.530Z,11.22
2022-11-22T18:32:39.626Z,11.33
2022-11-22T18:35:18.603Z,11.49
2022-11-22T18:37:56.245Z,11.60
2022-11-22T18:40:30.157Z,11.69
2022-11-22T18:43:06.615Z,11.78
2022-11-22T18:45:35.427Z,11.94
2022-11-22T18:48:08.705Z,12.09
2022-11-22T18:50:48.394Z,12.21
2022-11-22T18:53:20.421Z,12.30
2022-11-22T18:55:51.335Z,12.39
2022-11-22T18:58:32.133Z,12.52
2022-11-22T19:01:18.673Z,12.61
2022-11-22T19:03:58.242Z,12.69
2022-11-22T19:06:40.737Z,12.80
2022-11-22T19:09:14.900Z,12.82
2022-11-22T19:12:10.187Z,12.89
2022-11-22T19:14:49.860Z,12.93
2022-11-22T19:17:23.490Z,12.97
2022-11-22T19:20:16.744Z,13.04
2022-11-22T19:23:00.837Z,13.20
2022-11-22T19:25:37.732Z,13.31
2022-11-22T19:28:11.716Z,13.38
2022-11-22T19:30:44.823Z,13.46
2022-11-22T19:33:16.574Z,13.62
2022-11-22T19:35:47.748Z,13.77
2022-11-22T19:38:20.167Z,13.93
2022-11-22T19:40:55.459Z,14.03
2022-11-22T19:43:27.462Z,14.14
2022-11-22T19:46:02.477Z,14.27
2022-11-22T19:48:47.001Z,14.37
2022-11-22T19:51:16.267Z,14.46
2022-11-22T19:53:47.314Z,14.59
2022-11-22T19:56:21.250Z,14.79
2022-11-22T19:58:55.145Z,14.96
2022-11-22T20:01:27.403Z,15.11
2022-11-22T20:03:58.683Z,15.29
2022-11-22T20:06:34.145Z,15.49
2022-11-22T20:09:03.267Z,15.62
2022-11-22T20:11:42.171Z,15.71
2022-11-22T20:14:13.858Z,15.81
2022-11-22T20:16:48.676Z,15.95
2022-11-22T20:19:25.330Z,16.08
2022-11-22T20:21:57.711Z,16.23
2022-11-22T20:24:29.124Z,16.34
2022-11-22T20:26:57.720Z,16.43
2022-11-22T20:29:26.168Z,16.51
2022-11-22T20:31:56.392Z,16.60
2022-11-22T20:34:24.701Z,16.64
2022-11-22T20:36:53.077Z,16.64
2022-11-22T20:39:25.122Z,16.72
2022-11-22T20:42:18.565Z,16.80
2022-11-22T20:44:46.021Z,16.99
2022-11-22T20:47:14.457Z,17.09
2022-11-22T20:49:45.667Z,17.22
2022-11-22T20:52:17.261Z,17.29
2022-11-22T20:54:50.137Z,17.33
2022-11-22T20:57:21.184Z,17.33
2022-11-22T21:00:51.734Z,17.26
2022-11-22T21:02:43.586Z,17.19
2022-11-22T21:05:13.073Z,17.20
2022-11-22T21:07:43.551Z,17.22
2022-11-22T21:10:12.526Z,17.21
2022-11-22T21:12:43.143Z,17.23
2022-11-22T21:15:12.572Z,17.27
2022-11-22T21:18:09.161Z,17.28
2022-11-22T21:20:38.072Z,17.32
2022-11-22T21:23:06.709Z,17.35
2022-11-22T21:25:35.099Z,17.39
2022-11-22T21:28:03.433Z,17.38
2022-11-22T21:30:31.712Z,17.44
2022-11-22T21:33:00.037Z,17.48
2022-11-22T21:35:33.384Z,17.52
2022-11-22T21:38:01.706Z,17.45
2022-11-22T21:40:32.323Z,17.48
2022-11-22T21:43:03.152Z,17.62
2022-11-22T21:45:31.461Z,17.77
2022-11-22T21:48:01.501Z,17.88
2022-11-22T21:50:29.742Z,17.99
2022-11-22T21:53:08.973Z,18.10
2022-11-22T21:55:37.816Z,18.22
2022-11-22T21:58:08.166Z,18.35
2022-11-22T22:00:58.582Z,18.49
2022-11-22T22:03:27.748Z,18.60
2022-11-22T22:05:56.459Z,18.61
2022-11-22T22:08:31.258Z,18.68
2022-11-22T22:11:01.382Z,18.79
2022-11-22T22:13:34.066Z,18.80
2022-11-22T22:16:16.352Z,18.82
2022-11-22T22:18:48.016Z,18.63
2022-11-22T22:21:17.867Z,18.41
2022-11-22T22:23:50.143Z,18.22
2022-11-22T22:26:26.542Z,18.07
2022-11-22T22:28:57.652Z,17.97
2022-11-22T22:31:27.886Z,17.89
2022-11-22T22:33:59.782Z,17.95
2022-11-22T22:36:31.001Z,18.08
2022-11-22T22:39:07.293Z,18.20
2022-11-22T22:41:38.341Z,18.35
2022-11-22T22:44:09.181Z,18.51
2022-11-22T22:46:45.485Z,18.62
2022-11-22T22:49:23.822Z,18.61
2022-11-22T22:51:58.072Z,18.40
2022-11-22T22:54:29.032Z,18.25
2022-11-22T22:56:57.345Z,18.11
2022-11-22T22:59:25.712Z,18.00
2022-11-22T23:01:54.161Z,17.90
2022-11-22T23:04:24.051Z,17.84
2022-11-22T23:06:54.631Z,17.79
2022-11-22T23:09:28.193Z,17.75
2022-11-22T23:12:11.880Z,17.71
2022-11-22T23:14:41.841Z,17.64
2022-11-22T23:17:12.847Z,17.62
2022-11-22T23:19:41.227Z,17.56
2022-11-22T23:22:10.497Z,17.45
2022-11-22T23:24:38.826Z,17.38
2022-11-22T23:27:07.146Z,17.32
2022-11-22T23:29:41.029Z,17.27
2022-11-22T23:32:09.430Z,17.20
2022-11-22T23:34:46.661Z,17.11
2022-11-22T23:37:15.153Z,17.00
2022-11-22T23:39:43.592Z,16.94
2022-11-22T23:42:11.852Z,16.88
2022-11-22T23:44:40.234Z,16.83
2022-11-22T23:47:08.590Z,16.80
2022-11-22T23:49:36.900Z,16.76
2022-11-22T23:52:05.647Z,16.74
2022-11-22T23:54:33.953Z,16.71
2022-11-22T23:57:02.346Z,16.68
2022-11-22T23:59:33.143Z,16.67
